sensor_id;sensor_type;location;lat;lon;timestamp;temperature;humidity
57709;SHT35;42558;52.388;13.390;2024-03-02T00:02:04;6.43;90.60
57709;SHT35;42558;52.388;13.390;2024-03-02T00:04:36;6.44;90.61
57709;SHT35;42558;52.388;13.390;2024-03-02T00:07:07;6.47;90.69
57709;SHT35;42558;52.388;13.390;2024-03-02T00:09:37;6.48;90.65
57709;SHT35;42558;52.388;13.390;2024-03-02T00:12:07;6.48;90.61
57709;SHT35;42558;52.388;13.390;2024-03-02T00:14:41;6.50;90.70
57709;SHT35;42558;52.388;13.390;2024-03-02T00:17:15;6.51;90.70
57709;SHT35;42558;52.388;13.390;2024-03-02T00:19:54;6.54;90.72
57709;SHT35;42558;52.388;13.390;2024-03-02T00:22:24;6.55;90.75
57709;SHT35;42558;52.388;13.390;2024-03-02T00:24:54;6.56;90.79
57709;SHT35;42558;52.388;13.390;2024-03-02T00:27:24;6.59;90.87
57709;SHT35;42558;52.388;13.390;2024-03-02T00:29:54;6.59;90.82
57709;SHT35;42558;52.388;13.390;2024-03-02T00:32:25;6.59;90.87
57709;SHT35;42558;52.388;13.390;2024-03-02T00:34:57;6.59;90.86
57709;SHT35;42558;52.388;13.390;2024-03-02T00:37:27;6.60;90.90
57709;SHT35;42558;52.388;13.390;2024-03-02T00:39:59;6.60;90.90
57709;SHT35;42558;52.388;13.390;2024-03-02T00:42:29;6.60;90.92
57709;SHT35;42558;52.388;13.390;2024-03-02T00:45:01;6.63;91.00
57709;SHT35;42558;52.388;13.390;2024-03-02T00:47:40;6.63;91.00
57709;SHT35;42558;52.388;13.390;2024-03-02T00:50:10;6.64;91.00
57709;SHT35;42558;52.388;13.390;2024-03-02T00:52:51;6.64;91.00
57709;SHT35;42558;52.388;13.390;2024-03-02T00:55:21;6.66;91.03
57709;SHT35;42558;52.388;13.390;2024-03-02T00:57:51;6.67;91.02
57709;SHT35;42558;52.388;13.390;2024-03-02T01:00:21;6.70;91.10
57709;SHT35;42558;52.388;13.390;2024-03-02T01:02:52;6.72;91.12
57709;SHT35;42558;52.388;13.390;2024-03-02T01:05:21;6.75;91.11
57709;SHT35;42558;52.388;13.390;2024-03-02T01:07:51;6.74;91.10
57709;SHT35;42558;52.388;13.390;2024-03-02T01:10:21;6.74;91.10
57709;SHT35;42558;52.388;13.390;2024-03-02T01:12:51;6.73;91.10
57709;SHT35;42558;52.388;13.390;2024-03-02T01:15:21;6.74;91.10
57709;SHT35;42558;52.388;13.390;2024-03-02T01:17:51;6.74;91.11
57709;SHT35;42558;52.388;13.390;2024-03-02T01:20:24;6.77;91.19
57709;SHT35;42558;52.388;13.390;2024-03-02T01:22:54;6.78;91.19
57709;SHT35;42558;52.388;13.390;2024-03-02T01:25:24;6.78;91.20
57709;SHT35;42558;52.388;13.390;2024-03-02T01:27:54;6.79;91.20
57709;SHT35;42558;52.388;13.390;2024-03-02T01:30:24;6.79;91.20
57709;SHT35;42558;52.388;13.390;2024-03-02T01:32:54;6.80;91.21
57709;SHT35;42558;52.388;13.390;2024-03-02T01:35:24;6.82;91.26
57709;SHT35;42558;52.388;13.390;2024-03-02T01:37:56;6.84;91.29
57709;SHT35;42558;52.388;13.390;2024-03-02T01:40:25;6.84;91.30
57709;SHT35;42558;52.388;13.390;2024-03-02T01:42:56;6.86;91.30
57709;SHT35;42558;52.388;13.390;2024-03-02T01:45:28;6.88;91.39
57709;SHT35;42558;52.388;13.390;2024-03-02T01:47:58;6.91;91.40
57709;SHT35;42558;52.388;13.390;2024-03-02T01:50:31;6.89;91.32
57709;SHT35;42558;52.388;13.390;2024-03-02T01:53:02;6.89;91.40
57709;SHT35;42558;52.388;13.390;2024-03-02T01:55:32;6.90;91.41
57709;SHT35;42558;52.388;13.390;2024-03-02T01:58:04;6.89;91.41
57709;SHT35;42558;52.388;13.390;2024-03-02T02:00:34;6.89;91.40
57709;SHT35;42558;52.388;13.390;2024-03-02T02:03:05;6.90;91.46
57709;SHT35;42558;52.388;13.390;2024-03-02T02:05:36;6.89;91.50
57709;SHT35;42558;52.388;13.390;2024-03-02T02:08:06;6.87;91.49
57709;SHT35;42558;52.388;13.390;2024-03-02T02:10:34;6.84;91.46
57709;SHT35;42558;52.388;13.390;2024-03-02T02:13:03;6.86;91.53
57709;SHT35;42558;52.388;13.390;2024-03-02T02:15:31;6.90;91.63
57709;SHT35;42558;52.388;13.390;2024-03-02T02:18:03;7.06;92.08
57709;SHT35;42558;52.388;13.390;2024-03-02T02:20:31;7.11;92.21
57709;SHT35;42558;52.388;13.390;2024-03-02T02:23:00;7.13;92.29
57709;SHT35;42558;52.388;13.390;2024-03-02T02:25:32;7.19;92.47
57709;SHT35;42558;52.388;13.390;2024-03-02T02:28:02;7.18;92.43
57709;SHT35;42558;52.388;13.390;2024-03-02T02:30:32;7.17;92.33
57709;SHT35;42558;52.388;13.390;2024-03-02T02:33:03;7.16;92.30
57709;SHT35;42558;52.388;13.390;2024-03-02T02:35:33;7.20;92.32
57709;SHT35;42558;52.388;13.390;2024-03-02T02:38:01;7.27;92.53
57709;SHT35;42558;52.388;13.390;2024-03-02T02:40:33;7.29;92.57
57709;SHT35;42558;52.388;13.390;2024-03-02T02:43:02;7.27;92.51
57709;SHT35;42558;52.388;13.390;2024-03-02T02:45:33;7.33;92.61
57709;SHT35;42558;52.388;13.390;2024-03-02T02:48:03;7.44;92.80
57709;SHT35;42558;52.388;13.390;2024-03-02T02:50:34;7.49;92.86
57709;SHT35;42558;52.388;13.390;2024-03-02T02:53:04;7.54;92.96
57709;SHT35;42558;52.388;13.390;2024-03-02T02:55:35;7.55;92.90
57709;SHT35;42558;52.388;13.390;2024-03-02T02:58:10;7.57;92.89
57709;SHT35;42558;52.388;13.390;2024-03-02T03:00:40;7.62;92.97
57709;SHT35;42558;52.388;13.390;2024-03-02T03:03:10;7.64;93.02
57709;SHT35;42558;52.388;13.390;2024-03-02T03:05:40;7.68;93.07
57709;SHT35;42558;52.388;13.390;2024-03-02T03:08:10;7.68;93.00
57709;SHT35;42558;52.388;13.390;2024-03-02T03:10:40;7.71;93.01
57709;SHT35;42558;52.388;13.390;2024-03-02T03:13:09;7.74;93.07
57709;SHT35;42558;52.388;13.390;2024-03-02T03:15:40;7.75;93.07
57709;SHT35;42558;52.388;13.390;2024-03-02T03:18:10;7.78;93.07
57709;SHT35;42558;52.388;13.390;2024-03-02T03:20:40;7.83;93.14
57709;SHT35;42558;52.388;13.390;2024-03-02T03:23:10;7.85;93.20
57709;SHT35;42558;52.388;13.390;2024-03-02T03:25:44;7.88;93.20
57709;SHT35;42558;52.388;13.390;2024-03-02T03:28:14;7.85;93.14
57709;SHT35;42558;52.388;13.390;2024-03-02T03:30:44;7.87;93.13
57709;SHT35;42558;52.388;13.390;2024-03-02T03:33:14;7.87;93.13
57709;SHT35;42558;52.388;13.390;2024-03-02T03:35:44;7.89;93.11
57709;SHT35;42558;52.388;13.390;2024-03-02T03:38:13;7.87;93.10
57709;SHT35;42558;52.388;13.390;2024-03-02T03:40:43;7.87;93.10
57709;SHT35;42558;52.388;13.390;2024-03-02T03:43:14;7.87;93.10
57709;SHT35;42558;52.388;13.390;2024-03-02T03:45:44;7.89;93.11
57709;SHT35;42558;52.388;13.390;2024-03-02T03:48:14;7.89;93.18
57709;SHT35;42558;52.388;13.390;2024-03-02T03:50:44;7.92;93.19
57709;SHT35;42558;52.388;13.390;2024-03-02T03:53:14;7.91;93.20
57709;SHT35;42558;52.388;13.390;2024-03-02T03:55:44;7.92;93.22
57709;SHT35;42558;52.388;13.390;2024-03-02T03:58:16;7.94;93.24
57709;SHT35;42558;52.388;13.390;2024-03-02T04:00:51;7.95;93.25
57709;SHT35;42558;52.388;13.390;2024-03-02T04:03:21;7.98;93.31
57709;SHT35;42558;52.388;13.390;2024-03-02T04:05:51;7.99;93.32
57709;SHT35;42558;52.388;13.390;2024-03-02T04:08:21;7.99;93.30
57709;SHT35;42558;52.388;13.390;2024-03-02T04:10:51;8.01;93.30
57709;SHT35;42558;52.388;13.390;2024-03-02T04:13:21;8.04;93.30
57709;SHT35;42558;52.388;13.390;2024-03-02T04:15:51;8.03;93.29
57709;SHT35;42558;52.388;13.390;2024-03-02T04:18:21;8.02;93.27
57709;SHT35;42558;52.388;13.390;2024-03-02T04:20:51;8.03;93.26
57709;SHT35;42558;52.388;13.390;2024-03-02T04:23:22;8.04;93.28
57709;SHT35;42558;52.388;13.390;2024-03-02T04:25:52;8.06;93.30
57709;SHT35;42558;52.388;13.390;2024-03-02T04:28:22;8.07;93.30
57709;SHT35;42558;52.388;13.390;2024-03-02T04:30:52;8.09;93.30
57709;SHT35;42558;52.388;13.390;2024-03-02T04:33:22;8.09;93.31
57709;SHT35;42558;52.388;13.390;2024-03-02T04:35:52;8.10;93.30
57709;SHT35;42558;52.388;13.390;2024-03-02T04:38:22;8.09;93.29
57709;SHT35;42558;52.388;13.390;2024-03-02T04:40:52;8.10;93.28
57709;SHT35;42558;52.388;13.390;2024-03-02T04:43:22;8.09;93.22
57709;SHT35;42558;52.388;13.390;2024-03-02T04:45:52;8.08;93.20
57709;SHT35;42558;52.388;13.390;2024-03-02T04:48:22;8.09;93.20
57709;SHT35;42558;52.388;13.390;2024-03-02T04:50:52;8.10;93.20
57709;SHT35;42558;52.388;13.390;2024-03-02T04:53:22;8.08;93.20
57709;SHT35;42558;52.388;13.390;2024-03-02T04:55:52;8.07;93.25
57709;SHT35;42558;52.388;13.390;2024-03-02T04:58:41;8.07;93.30
57709;SHT35;42558;52.388;13.390;2024-03-02T05:01:11;8.06;93.36
57709;SHT35;42558;52.388;13.390;2024-03-02T05:03:41;8.05;93.40
57709;SHT35;42558;52.388;13.390;2024-03-02T05:06:11;8.04;93.40
57709;SHT35;42558;52.388;13.390;2024-03-02T05:08:41;8.04;93.42
57709;SHT35;42558;52.388;13.390;2024-03-02T05:11:11;8.03;93.44
57709;SHT35;42558;52.388;13.390;2024-03-02T05:14:00;8.04;93.50
57709;SHT35;42558;52.388;13.390;2024-03-02T05:16:33;8.03;93.56
57709;SHT35;42558;52.388;13.390;2024-03-02T05:19:04;8.02;93.60
57709;SHT35;42558;52.388;13.390;2024-03-02T05:21:36;8.02;93.63
57709;SHT35;42558;52.388;13.390;2024-03-02T05:24:06;8.00;93.68
57709;SHT35;42558;52.388;13.390;2024-03-02T05:26:36;8.01;93.64
57709;SHT35;42558;52.388;13.390;2024-03-02T05:29:06;8.01;93.59
57709;SHT35;42558;52.388;13.390;2024-03-02T05:31:36;7.97;93.51
57709;SHT35;42558;52.388;13.390;2024-03-02T05:34:06;7.97;93.55
57709;SHT35;42558;52.388;13.390;2024-03-02T05:36:36;7.97;93.53
57709;SHT35;42558;52.388;13.390;2024-03-02T05:39:08;7.97;93.55
57709;SHT35;42558;52.388;13.390;2024-03-02T05:41:39;7.96;93.56
57709;SHT35;42558;52.388;13.390;2024-03-02T05:44:09;7.95;93.60
57709;SHT35;42558;52.388;13.390;2024-03-02T05:46:39;7.94;93.58
57709;SHT35;42558;52.388;13.390;2024-03-02T05:49:10;7.95;93.56
57709;SHT35;42558;52.388;13.390;2024-03-02T05:51:40;7.95;93.50
57709;SHT35;42558;52.388;13.390;2024-03-02T05:54:11;7.93;93.50
57709;SHT35;42558;52.388;13.390;2024-03-02T05:56:41;7.94;93.51
57709;SHT35;42558;52.388;13.390;2024-03-02T05:59:10;7.93;93.50
57709;SHT35;42558;52.388;13.390;2024-03-02T06:01:44;7.91;93.50
57709;SHT35;42558;52.388;13.390;2024-03-02T06:04:19;7.90;93.50
57709;SHT35;42558;52.388;13.390;2024-03-02T06:06:47;7.91;93.50
57709;SHT35;42558;52.388;13.390;2024-03-02T06:09:19;7.89;93.50
57709;SHT35;42558;52.388;13.390;2024-03-02T06:11:49;7.88;93.48
57709;SHT35;42558;52.388;13.390;2024-03-02T06:14:19;7.87;93.50
57709;SHT35;42558;52.388;13.390;2024-03-02T06:16:49;7.87;93.48
57709;SHT35;42558;52.388;13.390;2024-03-02T06:19:19;7.83;93.48
57709;SHT35;42558;52.388;13.390;2024-03-02T06:21:49;7.82;93.42
57709;SHT35;42558;52.388;13.390;2024-03-02T06:24:19;7.83;93.50
57709;SHT35;42558;52.388;13.390;2024-03-02T06:26:48;7.83;93.51
57709;SHT35;42558;52.388;13.390;2024-03-02T06:29:18;7.83;93.50
57709;SHT35;42558;52.388;13.390;2024-03-02T06:31:48;7.84;93.56
57709;SHT35;42558;52.388;13.390;2024-03-02T06:34:22;7.86;93.51
57709;SHT35;42558;52.388;13.390;2024-03-02T06:36:52;7.84;93.50
57709;SHT35;42558;52.388;13.390;2024-03-02T06:39:22;7.80;93.48
57709;SHT35;42558;52.388;13.390;2024-03-02T06:41:52;7.81;93.47
57709;SHT35;42558;52.388;13.390;2024-03-02T06:44:20;7.80;93.46
57709;SHT35;42558;52.388;13.390;2024-03-02T06:46:48;7.83;93.41
57709;SHT35;42558;52.388;13.390;2024-03-02T06:49:18;7.81;93.40
57709;SHT35;42558;52.388;13.390;2024-03-02T06:51:47;7.84;93.41
57709;SHT35;42558;52.388;13.390;2024-03-02T06:54:14;7.82;93.38
57709;SHT35;42558;52.388;13.390;2024-03-02T06:56:42;7.87;93.40
57709;SHT35;42558;52.388;13.390;2024-03-02T06:59:10;7.85;93.31
57709;SHT35;42558;52.388;13.390;2024-03-02T07:01:38;7.85;93.30
57709;SHT35;42558;52.388;13.390;2024-03-02T07:04:06;7.88;93.30
57709;SHT35;42558;52.388;13.390;2024-03-02T07:06:34;7.88;93.29
57709;SHT35;42558;52.388;13.390;2024-03-02T07:09:04;7.90;93.30
57709;SHT35;42558;52.388;13.390;2024-03-02T07:11:34;7.95;93.30
57709;SHT35;42558;52.388;13.390;2024-03-02T07:14:04;7.99;93.27
57709;SHT35;42558;52.388;13.390;2024-03-02T07:16:34;7.99;93.20
57709;SHT35;42558;52.388;13.390;2024-03-02T07:19:07;8.02;93.20
57709;SHT35;42558;52.388;13.390;2024-03-02T07:21:38;8.07;93.21
57709;SHT35;42558;52.388;13.390;2024-03-02T07:24:08;8.01;93.03
57709;SHT35;42558;52.388;13.390;2024-03-02T07:26:42;8.05;93.08
57709;SHT35;42558;52.388;13.390;2024-03-02T07:29:15;8.07;93.04
57709;SHT35;42558;52.388;13.390;2024-03-02T07:31:45;8.03;92.84
57709;SHT35;42558;52.388;13.390;2024-03-02T07:34:15;8.07;92.88
57709;SHT35;42558;52.388;13.390;2024-03-02T07:36:45;8.10;92.86
57709;SHT35;42558;52.388;13.390;2024-03-02T07:39:15;8.11;92.77
57709;SHT35;42558;52.388;13.390;2024-03-02T07:41:46;8.07;92.64
57709;SHT35;42558;52.388;13.390;2024-03-02T07:44:16;8.10;92.69
57709;SHT35;42558;52.388;13.390;2024-03-02T07:46:48;8.18;92.74
57709;SHT35;42558;52.388;13.390;2024-03-02T07:49:21;8.16;92.61
57709;SHT35;42558;52.388;13.390;2024-03-02T07:51:51;8.14;92.48
57709;SHT35;42558;52.388;13.390;2024-03-02T07:54:21;8.15;92.47
57709;SHT35;42558;52.388;13.390;2024-03-02T07:56:51;8.13;92.30
57709;SHT35;42558;52.388;13.390;2024-03-02T07:59:21;8.19;92.35
57709;SHT35;42558;52.388;13.390;2024-03-02T08:01:51;8.29;92.35
57709;SHT35;42558;52.388;13.390;2024-03-02T08:04:21;8.23;92.04
57709;SHT35;42558;52.388;13.390;2024-03-02T08:06:52;8.26;92.06
57709;SHT35;42558;52.388;13.390;2024-03-02T08:09:24;8.31;92.06
57709;SHT35;42558;52.388;13.390;2024-03-02T08:11:54;8.25;91.71
57709;SHT35;42558;52.388;13.390;2024-03-02T08:14:26;8.26;91.63
57709;SHT35;42558;52.388;13.390;2024-03-02T08:16:56;8.20;91.30
57709;SHT35;42558;52.388;13.390;2024-03-02T08:19:26;8.26;91.32
57709;SHT35;42558;52.388;13.390;2024-03-02T08:21:55;8.28;91.27
57709;SHT35;42558;52.388;13.390;2024-03-02T08:24:29;8.32;91.21
57709;SHT35;42558;52.388;13.390;2024-03-02T08:26:59;8.33;90.99
57709;SHT35;42558;52.388;13.390;2024-03-02T08:29:29;8.32;90.87
57709;SHT35;42558;52.388;13.390;2024-03-02T08:32:00;8.36;90.97
57709;SHT35;42558;52.388;13.390;2024-03-02T08:34:30;8.38;90.82
57709;SHT35;42558;52.388;13.390;2024-03-02T08:37:01;8.39;90.69
57709;SHT35;42558;52.388;13.390;2024-03-02T08:39:32;8.43;90.62
57709;SHT35;42558;52.388;13.390;2024-03-02T08:42:02;8.43;90.31
57709;SHT35;42558;52.388;13.390;2024-03-02T08:44:33;8.46;90.28
57709;SHT35;42558;52.388;13.390;2024-03-02T08:47:03;8.45;90.15
57709;SHT35;42558;52.388;13.390;2024-03-02T08:49:34;8.47;90.07
57709;SHT35;42558;52.388;13.390;2024-03-02T08:52:05;8.52;90.03
57709;SHT35;42558;52.388;13.390;2024-03-02T08:54:35;8.51;89.70
57709;SHT35;42558;52.388;13.390;2024-03-02T08:57:05;8.54;89.70
57709;SHT35;42558;52.388;13.390;2024-03-02T08:59:37;8.49;89.28
57709;SHT35;42558;52.388;13.390;2024-03-02T09:02:06;8.54;89.40
57709;SHT35;42558;52.388;13.390;2024-03-02T09:04:36;8.62;89.41
57709;SHT35;42558;52.388;13.390;2024-03-02T09:07:06;8.70;89.52
57709;SHT35;42558;52.388;13.390;2024-03-02T09:09:37;8.68;89.14
57709;SHT35;42558;52.388;13.390;2024-03-02T09:12:08;8.65;89.00
57709;SHT35;42558;52.388;13.390;2024-03-02T09:14:36;8.64;88.87
57709;SHT35;42558;52.388;13.390;2024-03-02T09:17:06;8.66;88.88
57709;SHT35;42558;52.388;13.390;2024-03-02T09:19:38;8.72;88.82
57709;SHT35;42558;52.388;13.390;2024-03-02T09:22:09;8.73;88.47
57709;SHT35;42558;52.388;13.390;2024-03-02T09:24:39;8.73;88.53
57709;SHT35;42558;52.388;13.390;2024-03-02T09:27:09;8.74;88.30
57709;SHT35;42558;52.388;13.390;2024-03-02T09:29:38;8.76;88.21
57709;SHT35;42558;52.388;13.390;2024-03-02T09:32:12;8.88;88.28
57709;SHT35;42558;52.388;13.390;2024-03-02T09:34:43;8.87;87.85
57709;SHT35;42558;52.388;13.390;2024-03-02T09:37:13;8.80;87.47
57709;SHT35;42558;52.388;13.390;2024-03-02T09:39:43;8.79;87.18
57709;SHT35;42558;52.388;13.390;2024-03-02T09:42:14;8.83;87.02
57709;SHT35;42558;52.388;13.390;2024-03-02T09:44:45;8.96;87.06
57709;SHT35;42558;52.388;13.390;2024-03-02T09:47:15;9.10;86.82
57709;SHT35;42558;52.388;13.390;2024-03-02T09:49:45;9.24;86.41
57709;SHT35;42558;52.388;13.390;2024-03-02T09:52:15;9.34;85.83
57709;SHT35;42558;52.388;13.390;2024-03-02T09:54:47;9.35;85.06
57709;SHT35;42558;52.388;13.390;2024-03-02T09:57:18;9.48;85.39
57709;SHT35;42558;52.388;13.390;2024-03-02T09:59:48;9.63;84.82
57709;SHT35;42558;52.388;13.390;2024-03-02T10:02:18;9.76;84.55
57709;SHT35;42558;52.388;13.390;2024-03-02T10:04:49;9.79;83.99
57709;SHT35;42558;52.388;13.390;2024-03-02T10:07:19;9.87;84.04
57709;SHT35;42558;52.388;13.390;2024-03-02T10:09:49;9.90;83.16
57709;SHT35;42558;52.388;13.390;2024-03-02T10:12:19;9.90;83.08
57709;SHT35;42558;52.388;13.390;2024-03-02T10:14:49;10.01;82.76
57709;SHT35;42558;52.388;13.390;2024-03-02T10:17:20;9.88;82.69
57709;SHT35;42558;52.388;13.390;2024-03-02T10:19:50;9.98;82.98
57709;SHT35;42558;52.388;13.390;2024-03-02T10:22:22;10.13;82.32
57709;SHT35;42558;52.388;13.390;2024-03-02T10:24:53;10.24;82.35
57709;SHT35;42558;52.388;13.390;2024-03-02T10:27:28;10.13;81.53
57709;SHT35;42558;52.388;13.390;2024-03-02T10:29:59;10.15;81.67
57709;SHT35;42558;52.388;13.390;2024-03-02T10:32:28;10.19;81.58
57709;SHT35;42558;52.388;13.390;2024-03-02T10:34:58;10.33;81.11
57709;SHT35;42558;52.388;13.390;2024-03-02T10:37:29;10.36;80.66
57709;SHT35;42558;52.388;13.390;2024-03-02T10:40:04;10.47;80.94
57709;SHT35;42558;52.388;13.390;2024-03-02T10:42:39;10.81;81.10
57709;SHT35;42558;52.388;13.390;2024-03-02T10:45:12;10.91;79.68
57709;SHT35;42558;52.388;13.390;2024-03-02T10:47:46;10.72;79.27
57709;SHT35;42558;52.388;13.390;2024-03-02T10:50:17;10.80;79.15
57709;SHT35;42558;52.388;13.390;2024-03-02T10:52:47;10.88;79.14
57709;SHT35;42558;52.388;13.390;2024-03-02T10:55:17;10.73;79.00
57709;SHT35;42558;52.388;13.390;2024-03-02T10:57:51;10.96;78.69
57709;SHT35;42558;52.388;13.390;2024-03-02T11:00:24;11.18;77.56
57709;SHT35;42558;52.388;13.390;2024-03-02T11:03:04;11.65;77.17
57709;SHT35;42558;52.388;13.390;2024-03-02T11:05:43;12.31;76.23
57709;SHT35;42558;52.388;13.390;2024-03-02T11:08:16;12.15;74.54
57709;SHT35;42558;52.388;13.390;2024-03-02T11:10:51;12.11;75.71
57709;SHT35;42558;52.388;13.390;2024-03-02T11:13:31;12.84;75.58
57709;SHT35;42558;52.388;13.390;2024-03-02T11:16:06;13.59;73.28
57709;SHT35;42558;52.388;13.390;2024-03-02T11:18:46;12.92;71.27
57709;SHT35;42558;52.388;13.390;2024-03-02T11:21:19;12.88;73.21
57709;SHT35;42558;52.388;13.390;2024-03-02T11:23:50;13.19;72.21
57709;SHT35;42558;52.388;13.390;2024-03-02T11:26:20;12.79;71.54
57709;SHT35;42558;52.388;13.390;2024-03-02T11:28:52;12.68;71.47
57709;SHT35;42558;52.388;13.390;2024-03-02T11:31:21;12.69;71.84
57709;SHT35;42558;52.388;13.390;2024-03-02T11:33:51;12.28;72.29
57709;SHT35;42558;52.388;13.390;2024-03-02T11:36:21;12.34;72.77
57709;SHT35;42558;52.388;13.390;2024-03-02T11:38:51;12.47;71.95
57709;SHT35;42558;52.388;13.390;2024-03-02T11:41:23;12.55;71.43
57709;SHT35;42558;52.388;13.390;2024-03-02T11:43:54;12.66;71.25
57709;SHT35;42558;52.388;13.390;2024-03-02T11:46:24;12.80;72.26
57709;SHT35;42558;52.388;13.390;2024-03-02T11:48:55;12.97;71.57
57709;SHT35;42558;52.388;13.390;2024-03-02T11:51:25;13.03;71.48
57709;SHT35;42558;52.388;13.390;2024-03-02T11:53:56;12.95;70.17
57709;SHT35;42558;52.388;13.390;2024-03-02T11:56:30;12.85;70.95
57709;SHT35;42558;52.388;13.390;2024-03-02T11:59:01;12.60;70.99
57709;SHT35;42558;52.388;13.390;2024-03-02T12:01:34;12.69;71.20
57709;SHT35;42558;52.388;13.390;2024-03-02T12:04:06;12.88;70.72
57709;SHT35;42558;52.388;13.390;2024-03-02T12:06:37;12.64;70.46
57709;SHT35;42558;52.388;13.390;2024-03-02T12:09:09;12.63;71.43
57709;SHT35;42558;52.388;13.390;2024-03-02T12:11:44;12.69;70.90
57709;SHT35;42558;52.388;13.390;2024-03-02T12:14:14;12.96;71.10
57709;SHT35;42558;52.388;13.390;2024-03-02T12:16:44;12.77;71.71
57709;SHT35;42558;52.388;13.390;2024-03-02T12:19:14;12.82;71.81
57709;SHT35;42558;52.388;13.390;2024-03-02T12:21:45;12.58;72.38
57709;SHT35;42558;52.388;13.390;2024-03-02T12:24:15;12.59;73.09
57709;SHT35;42558;52.388;13.390;2024-03-02T12:26:46;12.76;72.71
57709;SHT35;42558;52.388;13.390;2024-03-02T12:29:20;12.62;72.36
57709;SHT35;42558;52.388;13.390;2024-03-02T12:31:51;12.42;73.29
57709;SHT35;42558;52.388;13.390;2024-03-02T12:34:22;12.29;72.78
57709;SHT35;42558;52.388;13.390;2024-03-02T12:36:50;12.16;72.98
57709;SHT35;42558;52.388;13.390;2024-03-02T12:39:22;12.35;73.07
57709;SHT35;42558;52.388;13.390;2024-03-02T12:41:52;12.55;72.29
57709;SHT35;42558;52.388;13.390;2024-03-02T12:44:22;12.69;71.76
57709;SHT35;42558;52.388;13.390;2024-03-02T12:46:52;12.73;72.02
57709;SHT35;42558;52.388;13.390;2024-03-02T12:49:27;13.15;71.68
57709;SHT35;42558;52.388;13.390;2024-03-02T12:51:58;13.41;70.77
57709;SHT35;42558;52.388;13.390;2024-03-02T12:54:28;13.43;69.36
57709;SHT35;42558;52.388;13.390;2024-03-02T12:56:58;13.39;69.14
57709;SHT35;42558;52.388;13.390;2024-03-02T12:59:26;13.31;70.30
57709;SHT35;42558;52.388;13.390;2024-03-02T13:01:56;13.62;69.70
57709;SHT35;42558;52.388;13.390;2024-03-02T13:04:30;13.78;68.96
57709;SHT35;42558;52.388;13.390;2024-03-02T13:07:00;13.90;67.92
57709;SHT35;42558;52.388;13.390;2024-03-02T13:09:32;13.61;68.25
57709;SHT35;42558;52.388;13.390;2024-03-02T13:12:03;13.41;67.49
57709;SHT35;42558;52.388;13.390;2024-03-02T13:14:35;12.94;68.49
57709;SHT35;42558;52.388;13.390;2024-03-02T13:17:05;13.11;69.10
57709;SHT35;42558;52.388;13.390;2024-03-02T13:19:38;13.51;68.59
57709;SHT35;42558;52.388;13.390;2024-03-02T13:22:08;13.66;67.91
57709;SHT35;42558;52.388;13.390;2024-03-02T13:24:38;13.35;66.92
57709;SHT35;42558;52.388;13.390;2024-03-02T13:27:08;13.38;67.61
57709;SHT35;42558;52.388;13.390;2024-03-02T13:29:38;13.67;66.75
57709;SHT35;42558;52.388;13.390;2024-03-02T13:32:08;13.81;66.49
57709;SHT35;42558;52.388;13.390;2024-03-02T13:34:39;13.91;66.33
57709;SHT35;42558;52.388;13.390;2024-03-02T13:37:09;14.06;65.06
57709;SHT35;42558;52.388;13.390;2024-03-02T13:39:39;14.44;65.83
57709;SHT35;42558;52.388;13.390;2024-03-02T13:42:12;14.55;62.81
57709;SHT35;42558;52.388;13.390;2024-03-02T13:44:44;14.34;63.08
57709;SHT35;42558;52.388;13.390;2024-03-02T13:47:17;14.25;62.78
57709;SHT35;42558;52.388;13.390;2024-03-02T13:49:46;14.46;63.42
57709;SHT35;42558;52.388;13.390;2024-03-02T13:52:18;14.68;63.10
57709;SHT35;42558;52.388;13.390;2024-03-02T13:54:48;14.58;62.30
57709;SHT35;42558;52.388;13.390;2024-03-02T13:57:18;14.66;61.38
57709;SHT35;42558;52.388;13.390;2024-03-02T13:59:52;14.53;61.03
57709;SHT35;42558;52.388;13.390;2024-03-02T14:02:24;14.19;62.17
57709;SHT35;42558;52.388;13.390;2024-03-02T14:04:54;14.13;62.74
57709;SHT35;42558;52.388;13.390;2024-03-02T14:07:23;14.07;63.39
57709;SHT35;42558;52.388;13.390;2024-03-02T14:09:53;14.12;61.77
57709;SHT35;42558;52.388;13.390;2024-03-02T14:12:23;13.91;61.34
57709;SHT35;42558;52.388;13.390;2024-03-02T14:14:53;13.74;62.41
57709;SHT35;42558;52.388;13.390;2024-03-02T14:17:27;13.77;63.20
57709;SHT35;42558;52.388;13.390;2024-03-02T14:19:58;13.62;62.90
57709;SHT35;42558;52.388;13.390;2024-03-02T14:22:28;13.46;63.57
57709;SHT35;42558;52.388;13.390;2024-03-02T14:24:58;13.53;63.61
57709;SHT35;42558;52.388;13.390;2024-03-02T14:27:28;13.66;63.17
57709;SHT35;42558;52.388;13.390;2024-03-02T14:30:18;13.81;62.57
57709;SHT35;42558;52.388;13.390;2024-03-02T14:32:48;13.75;63.04
57709;SHT35;42558;52.388;13.390;2024-03-02T14:35:18;13.82;62.25
57709;SHT35;42558;52.388;13.390;2024-03-02T14:37:48;14.06;63.03
57709;SHT35;42558;52.388;13.390;2024-03-02T14:40:18;14.31;63.73
57709;SHT35;42558;52.388;13.390;2024-03-02T14:42:49;14.29;62.82
57709;SHT35;42558;52.388;13.390;2024-03-02T14:45:18;14.15;63.87
57709;SHT35;42558;52.388;13.390;2024-03-02T14:47:45;14.09;64.13
57709;SHT35;42558;52.388;13.390;2024-03-02T14:50:13;14.08;64.45
57709;SHT35;42558;52.388;13.390;2024-03-02T14:52:46;14.10;64.22
57709;SHT35;42558;52.388;13.390;2024-03-02T14:55:16;14.07;64.32
57709;SHT35;42558;52.388;13.390;2024-03-02T14:57:46;14.25;64.98
57709;SHT35;42558;52.388;13.390;2024-03-02T15:00:16;14.18;63.51
57709;SHT35;42558;52.388;13.390;2024-03-02T15:02:47;14.06;64.35
57709;SHT35;42558;52.388;13.390;2024-03-02T15:05:17;14.00;65.34
57709;SHT35;42558;52.388;13.390;2024-03-02T15:07:47;14.00;66.43
57709;SHT35;42558;52.388;13.390;2024-03-02T15:10:17;14.03;66.54
57709;SHT35;42558;52.388;13.390;2024-03-02T15:12:47;13.86;66.64
57709;SHT35;42558;52.388;13.390;2024-03-02T15:15:18;13.67;66.86
57709;SHT35;42558;52.388;13.390;2024-03-02T15:17:47;13.52;67.13
57709;SHT35;42558;52.388;13.390;2024-03-02T15:20:18;13.30;67.45
57709;SHT35;42558;52.388;13.390;2024-03-02T15:22:50;13.24;67.86
57709;SHT35;42558;52.388;13.390;2024-03-02T15:25:20;13.26;67.45
57709;SHT35;42558;52.388;13.390;2024-03-02T15:27:50;13.30;67.93
57709;SHT35;42558;52.388;13.390;2024-03-02T15:30:21;13.12;68.02
57709;SHT35;42558;52.388;13.390;2024-03-02T15:32:51;13.07;68.39
57709;SHT35;42558;52.388;13.390;2024-03-02T15:35:21;13.17;68.75
57709;SHT35;42558;52.388;13.390;2024-03-02T15:37:51;13.06;68.31
57709;SHT35;42558;52.388;13.390;2024-03-02T15:40:21;12.87;68.88
57709;SHT35;42558;52.388;13.390;2024-03-02T15:42:51;12.78;68.94
57709;SHT35;42558;52.388;13.390;2024-03-02T15:45:20;12.80;69.10
57709;SHT35;42558;52.388;13.390;2024-03-02T15:47:50;12.70;68.84